Pinkney, North Carolina
Current Conditions -  °F | °C
As of 4:54 PM on Tuesday 21 Oct 2014 (Local Time) from KAKH Reporting Station
Few Clouds Few Clouds  
Wind Chill: 73°   Ceiling: Unl
Heat Index: 73°   Visibility: 10mi
Dew Point: 43°   Wind: 3mph
Humidity: 34%   Direction: NA
Pressure: 29.87"   Gusts: NA
Location:  35.2205°N, 81.2501°W
Report Text: KAKH 212054Z AUTO VRB03KT 10SM FEW070 23/06 A2987 RMK AO2 SLP112 T02280061 55006
Loading
Personal Weather Stations






























Interactive Weather Map
Tropical Storm Tracking
New forecast layout! Learn more

10-Day Weather Forecast

Advertisements
Track Severe Weather on mobile